North Menomonie, Wisconsin
Current Conditions -  °F | °C
As of 3:35 PM on Thursday 23 Oct 2014 (Local Time) from KLUM Reporting Station
Haze Haze  
Wind Chill: 53°   Ceiling: 500
Heat Index: 53°   Visibility: 3mi
Dew Point: 52°   Wind: 3mph
Humidity: 96%   Direction: 160°SSE
Pressure: 30"   Gusts: NA
Location:  44.857°N, 92.0071°W
Report Text: KLUM 232035Z AUTO 16003KT 3SM BR OVC005 12/11 A3000 RMK AO2 T01170111
Loading
Personal Weather Stations






























Interactive Weather Map
Tropical Storm Tracking
New forecast layout! Learn more

10-Day Weather Forecast

Advertisements
Track Severe Weather on mobile